Time;durP1;ratioP1;P1;durP2;ratioP2;P2;SDS_P1;SDS_P2;PMS_P1;PMS_P2;Temp;Humidity;BMP_temperature;BMP_pressure;BME280_temperature;BME280_humidity;BME280_pressure;Samples;Min_cycle;Max_cycle;Signal;HPM_P1;HPM_P2
2023/05/14 00:02:19;;;;;;;16.10;13.02;;;;;;;9.42;100.00;102007.50;4952570;29;20708;-51
2023/05/14 00:04:44;;;;;;;14.55;11.77;;;;;;;9.31;100.00;102006.75;4952821;29;20199;-50
2023/05/14 00:07:10;;;;;;;11.55;10.30;;;;;;;9.19;100.00;102018.53;4952733;29;20171;-50
2023/05/14 00:09:36;;;;;;;12.30;10.70;;;;;;;9.26;100.00;102017.53;4952879;29;20611;-50
2023/05/14 00:12:01;;;;;;;11.60;9.15;;;;;;;9.34;100.00;102004.94;4952458;29;20173;-50
2023/05/14 00:14:27;;;;;;;11.50;9.45;;;;;;;9.38;100.00;102003.09;4952747;29;20187;-49
2023/05/14 00:16:52;;;;;;;9.50;8.50;;;;;;;9.34;100.00;101999.59;4952449;29;20169;-49
2023/05/14 00:19:18;;;;;;;9.00;8.10;;;;;;;9.29;100.00;102001.44;4952660;29;20230;-50
2023/05/14 00:21:43;;;;;;;8.23;7.43;;;;;;;9.27;100.00;102001.47;4951224;29;20201;-52
2023/05/14 00:24:09;;;;;;;10.40;8.75;;;;;;;9.16;100.00;101990.03;4952356;29;20218;-49
2023/05/14 00:26:34;;;;;;;9.38;8.27;;;;;;;9.20;100.00;101990.88;4952024;28;20159;-49
2023/05/14 00:29:00;;;;;;;11.98;9.93;;;;;;;8.94;100.00;101986.75;4957710;28;20269;-48
2023/05/14 00:31:25;;;;;;;12.93;10.73;;;;;;;8.83;100.00;101986.91;4962306;28;20556;-49
2023/05/14 00:33:51;;;;;;;10.88;8.85;;;;;;;8.94;100.00;101986.75;4959547;28;20295;-48
2023/05/14 00:36:17;;;;;;;8.73;7.93;;;;;;;9.07;100.00;101991.06;4959235;28;20228;-49
2023/05/14 00:38:42;;;;;;;10.50;8.00;;;;;;;8.91;100.00;101972.56;4948829;28;20178;-48
2023/05/14 00:41:08;;;;;;;10.98;8.35;;;;;;;8.79;100.00;101976.25;4963416;28;20238;-48
2023/05/14 00:43:33;;;;;;;9.68;7.68;;;;;;;8.82;100.00;101976.22;4955613;28;20201;-49
2023/05/14 00:45:59;;;;;;;9.00;7.95;;;;;;;8.86;100.00;101978.84;4956779;28;20186;-48
2023/05/14 00:48:25;;;;;;;10.48;7.80;;;;;;;8.68;100.00;101978.16;4944409;28;20192;-49
2023/05/14 00:50:51;;;;;;;9.30;7.85;;;;;;;8.64;100.00;101982.69;4961220;28;20182;-46
2023/05/14 00:53:18;;;;;;;8.32;7.40;;;;;;;8.75;100.00;101974.53;4936509;28;20219;-48
2023/05/14 00:55:45;;;;;;;10.60;8.43;;;;;;;8.62;100.00;101981.81;4946160;29;20569;-49
2023/05/14 00:58:12;;;;;;;14.63;8.25;;;;;;;8.63;100.00;101970.22;4944413;28;20191;-47
2023/05/14 01:00:39;;;;;;;8.32;7.35;;;;;;;8.77;100.00;101970.06;4936565;29;20508;-46
2023/05/14 01:03:06;;;;;;;8.55;7.75;;;;;;;8.71;100.00;101970.13;4954789;28;20895;-49
2023/05/14 01:05:41;;;;;;;9.43;8.52;;;;;;;8.69;100.00;101977.28;4938883;29;20178;-53
2023/05/14 01:08:37;;;;;;;8.98;8.07;;;;;;;8.70;100.00;101985.25;4935582;28;20217;-50
2023/05/14 01:11:13;;;;;;;9.55;8.00;;;;;;;8.68;100.00;101980.84;4940117;28;20179;-52
2023/05/14 01:13:44;;;;;;;10.05;8.23;;;;;;;8.65;100.00;101974.63;4939802;29;20276;-51
2023/05/14 01:16:13;;;;;;;8.95;8.15;;;;;;;8.57;100.00;101973.88;4941641;29;20182;-54
2023/05/14 01:18:40;;;;;;;10.27;8.55;;;;;;;8.43;100.00;101968.66;4943575;29;20328;-52
2023/05/14 01:21:43;;;;;;;10.10;8.57;;;;;;;8.40;100.00;101978.47;4946147;29;20183;-53
2023/05/14 01:24:09;;;;;;;8.98;7.88;;;;;;;8.32;100.00;101978.53;4936008;28;20227;-53
2023/05/14 01:26:35;;;;;;;10.10;9.05;;;;;;;8.13;100.00;101983.16;4939399;29;20189;-53
2023/05/14 01:29:15;;;;;;;11.05;9.43;;;;;;;8.09;100.00;101976.13;4939171;29;20209;-52
2023/05/14 01:31:43;;;;;;;10.40;9.40;;;;;;;8.24;100.00;101972.38;4939909;29;20599;-53
2023/05/14 01:34:11;;;;;;;8.95;8.05;;;;;;;8.28;100.00;101978.59;4927688;29;20277;-53
2023/05/14 01:36:38;;;;;;;9.38;8.48;;;;;;;8.34;100.00;101973.19;4937894;29;20285;-53
2023/05/14 01:39:08;;;;;;;10.00;9.00;;;;;;;7.97;100.00;101985.09;4952933;28;20180;-52
2023/05/14 01:41:35;;;;;;;12.75;8.43;;;;;;;8.19;100.00;101983.13;4943117;29;20187;-52
2023/05/14 01:44:00;;;;;;;8.60;7.75;;;;;;;8.24;100.00;101986.66;4943771;29;20785;-50
2023/05/14 01:46:30;;;;;;;9.60;8.65;;;;;;;8.15;100.00;101985.84;4944830;29;20189;-51
2023/05/14 01:48:56;;;;;;;9.00;8.10;;;;;;;8.21;100.00;101986.66;4943029;29;20190;-50
2023/05/14 01:51:21;;;;;;;9.68;8.55;;;;;;;8.13;100.00;101983.16;4949898;29;20189;-52
2023/05/14 01:53:47;;;;;;;9.48;8.68;;;;;;;8.07;100.00;101974.34;4950821;29;20214;-54
2023/05/14 01:56:12;;;;;;;8.13;7.43;;;;;;;8.12;100.00;101970.72;4942338;29;20838;-50
2023/05/14 01:58:38;;;;;;;8.30;7.50;;;;;;;8.17;100.00;101971.56;4939375;29;20178;-51
2023/05/14 02:01:04;;;;;;;9.07;8.13;;;;;;;8.13;100.00;101964.47;4943215;28;20195;-51
2023/05/14 02:03:30;;;;;;;10.52;8.90;;;;;;;7.96;100.00;101967.34;4945305;28;20207;-49
2023/05/14 02:05:56;;;;;;;9.48;8.48;;;;;;;8.08;100.00;101960.09;4943537;28;20194;-51
2023/05/14 02:08:21;;;;;;;10.10;8.80;;;;;;;7.74;100.00;101963.06;4950402;29;20194;-50
2023/05/14 02:10:47;;;;;;;10.10;8.90;;;;;;;7.78;100.00;101965.72;4941103;29;20191;-50
2023/05/14 02:13:12;;;;;;;11.75;9.10;;;;;;;7.77;100.00;101960.38;4948966;29;20203;-51
2023/05/14 02:15:38;;;;;;;10.68;9.20;;;;;;;7.66;100.00;101949.81;4942370;28;20183;-52
2023/05/14 02:18:03;;;;;;;11.82;10.50;;;;;;;7.67;100.00;101954.22;4944653;28;20217;-51
2023/05/14 02:20:29;;;;;;;11.40;9.95;;;;;;;7.69;100.00;101951.56;4940936;28;20195;-49
2023/05/14 02:22:54;;;;;;;10.82;9.82;;;;;;;7.68;100.00;101947.13;4949975;29;20269;-47
2023/05/14 02:25:20;;;;;;;16.08;11.32;;;;;;;7.54;100.00;101952.56;4942098;29;20193;-48
2023/05/14 02:27:45;;;;;;;11.63;10.30;;;;;;;7.62;100.00;101948.06;4941879;29;20601;-49
2023/05/14 02:30:11;;;;;;;11.20;9.93;;;;;;;7.47;100.00;101946.38;4939570;29;20593;-47
2023/05/14 02:32:37;;;;;;;12.63;10.18;;;;;;;7.24;100.00;101949.22;4942845;29;20215;-47
2023/05/14 02:35:03;;;;;;;12.10;10.95;;;;;;;7.13;100.00;101964.41;4946734;29;20551;-49
2023/05/14 02:37:28;;;;;;;11.13;10.00;;;;;;;7.12;100.00;101967.94;4949826;29;20185;-47
2023/05/14 02:39:54;;;;;;;12.20;10.20;;;;;;;7.21;100.00;101957.22;4941760;29;20175;-46
2023/05/14 02:42:21;;;;;;;11.93;9.77;;;;;;;7.15;100.00;101965.25;4946321;28;20575;-47
2023/05/14 02:44:47;;;;;;;13.02;9.95;;;;;;;7.17;100.00;101959.03;4948745;29;20198;-49
2023/05/14 02:47:12;;;;;;;13.15;10.18;;;;;;;7.06;100.00;101962.63;4941998;29;20289;-52
2023/05/14 02:49:39;;;;;;;12.88;10.52;;;;;;;6.94;100.00;101961.81;4941052;29;20178;-50
2023/05/14 02:52:04;;;;;;;11.57;10.30;;;;;;;6.86;100.00;101958.28;4950796;29;20278;-50
2023/05/14 02:54:30;;;;;;;10.93;10.02;;;;;;;6.98;100.00;101955.59;4952426;28;20281;-53
2023/05/14 02:56:56;;;;;;;12.35;11.05;;;;;;;6.94;100.00;101948.50;4936768;29;20175;-53
2023/05/14 02:59:22;;;;;;;12.15;10.85;;;;;;;6.95;100.00;101960.94;4945078;29;20295;-46
2023/05/14 03:01:48;;;;;;;12.23;11.07;;;;;;;7.04;100.00;101951.09;4949402;29;20348;-49
2023/05/14 03:04:14;;;;;;;11.57;10.48;;;;;;;7.12;100.00;101944.84;4949018;29;20215;-47
2023/05/14 03:06:40;;;;;;;10.32;9.35;;;;;;;7.30;100.00;101940.28;4956941;28;20194;-48
2023/05/14 03:09:06;;;;;;;10.65;9.65;;;;;;;7.31;100.00;101952.72;4940783;28;20211;-48
2023/05/14 03:11:32;;;;;;;10.27;9.27;;;;;;;7.30;100.00;101941.16;4944399;28;20749;-47
2023/05/14 03:13:57;;;;;;;9.25;8.45;;;;;;;7.29;100.00;101944.75;4948336;29;20237;-50
2023/05/14 03:16:23;;;;;;;11.02;10.02;;;;;;;7.18;100.00;101943.94;4946210;29;20273;-48
2023/05/14 03:18:49;;;;;;;11.95;9.57;;;;;;;7.21;100.00;101933.22;4943409;29;20190;-46
2023/05/14 03:21:14;;;;;;;12.25;10.10;;;;;;;7.09;100.00;101931.53;4941221;29;20215;-48
2023/05/14 03:23:40;;;;;;;10.73;9.55;;;;;;;6.93;100.00;101938.75;4955700;28;20223;-48
2023/05/14 03:26:06;;;;;;;10.25;9.25;;;;;;;6.92;100.00;101936.09;4950746;29;20218;-48
2023/05/14 03:28:31;;;;;;;11.20;10.05;;;;;;;7.02;100.00;101948.47;4940539;29;20222;-47
2023/05/14 03:30:58;;;;;;;10.60;9.55;;;;;;;7.18;100.00;101941.25;4954257;28;20245;-50
2023/05/14 03:33:24;;;;;;;10.63;9.75;;;;;;;7.26;100.00;101939.44;4947731;29;20757;-48
2023/05/14 03:35:50;;;;;;;10.57;9.00;;;;;;;7.30;100.00;101951.81;4943184;28;20181;-49
2023/05/14 03:38:16;;;;;;;10.35;9.20;;;;;;;7.32;100.00;101943.81;4939535;29;20717;-48
2023/05/14 03:40:42;;;;;;;10.27;9.27;;;;;;;7.30;100.00;101938.50;4941712;28;20184;-49
2023/05/14 03:43:11;;;;;;;10.80;9.73;;;;;;;7.26;100.00;101938.53;4938827;29;20215;-49
2023/05/14 03:45:36;;;;;;;9.88;8.88;;;;;;;7.22;100.00;101937.69;4940729;29;20191;-48
2023/05/14 03:48:03;;;;;;;10.90;9.90;;;;;;;7.21;100.00;101942.13;4939501;29;20282;-47
2023/05/14 03:50:30;;;;;;;10.18;9.18;;;;;;;7.43;100.00;101936.63;4948934;29;20623;-48
2023/05/14 03:52:56;;;;;;;10.63;9.65;;;;;;;7.53;100.00;101943.66;4960989;28;20641;-49
2023/05/14 03:55:22;;;;;;;10.20;9.30;;;;;;;7.41;100.00;101938.41;4939448;28;20186;-50
2023/05/14 03:57:48;;;;;;;10.75;9.70;;;;;;;7.50;100.00;101937.47;4941497;28;20210;-47
2023/05/14 04:00:14;;;;;;;10.88;9.98;;;;;;;7.42;100.00;101924.22;4948283;28;20182;-48
2023/05/14 04:02:43;;;;;;;10.73;9.73;;;;;;;7.38;100.00;101928.66;4946527;28;20585;-47
2023/05/14 04:05:08;;;;;;;12.07;10.55;;;;;;;7.46;100.00;101925.97;4932108;28;20186;-47
2023/05/14 04:07:34;;;;;;;11.27;10.18;;;;;;;7.57;100.00;101932.09;4958492;28;20194;-48
2023/05/14 04:10:00;;;;;;;11.32;10.32;;;;;;;7.52;100.00;101928.59;4952001;28;20205;-49
2023/05/14 04:12:26;;;;;;;10.90;9.80;;;;;;;7.52;100.00;101941.00;4957273;28;20213;-49
2023/05/14 04:14:52;;;;;;;10.13;9.13;;;;;;;7.56;100.00;101935.63;4928854;28;20177;-49
2023/05/14 04:17:17;;;;;;;11.13;10.10;;;;;;;7.54;100.00;101933.88;4953062;28;20182;-47
2023/05/14 04:23:53;;;;;;;11.10;9.32;;;;;;;7.83;100.00;101931.00;4913984;28;20700;-47
2023/05/14 04:26:50;;;;;;;10.68;9.77;;;;;;;7.85;100.00;101926.53;4944994;28;20277;-47
2023/05/14 04:29:19;;;;;;;10.13;9.27;;;;;;;7.84;100.00;101922.94;4953372;28;20189;-49
2023/05/14 04:32:12;;;;;;;9.63;8.82;;;;;;;8.01;100.00;101921.91;4962403;28;20398;-50
2023/05/14 04:38:23;;;;;;;9.18;8.38;;;;;;;8.15;100.00;101927.09;4939405;28;20559;-50
2023/05/14 04:43:00;;;;;;;9.38;8.57;;;;;;;8.29;100.00;101926.94;4944717;28;20197;-50
2023/05/14 04:45:51;;;;;;;10.35;8.63;;;;;;;8.40;100.00;101925.97;4880382;29;20209;-48
2023/05/14 04:48:17;;;;;;;10.05;9.05;;;;;;;8.49;100.00;101922.31;4908871;28;20634;-46
2023/05/14 04:50:43;;;;;;;11.85;9.52;;;;;;;8.56;100.00;101921.31;4941569;28;20190;-47
2023/05/14 04:53:10;;;;;;;9.48;8.60;;;;;;;8.65;100.00;101923.00;4946142;29;20202;-47
2023/05/14 04:55:36;;;;;;;11.77;10.52;;;;;;;8.68;100.00;101919.41;4962379;28;20190;-47
2023/05/14 04:58:02;;;;;;;11.70;10.50;;;;;;;8.76;100.00;101914.84;4960716;28;20193;-48
2023/05/14 05:00:28;;;;;;;11.35;10.15;;;;;;;9.11;100.00;101918.81;4961925;28;20321;-49
2023/05/14 05:02:53;;;;;;;10.43;9.07;;;;;;;9.42;100.00;101916.53;4961636;28;20293;-50
2023/05/14 05:05:19;;;;;;;13.43;10.32;;;;;;;9.68;100.00;101908.97;4944870;28;20367;-47
2023/05/14 05:07:45;;;;;;;13.20;9.45;;;;;;;9.89;100.00;101913.06;4957897;28;20190;-47
2023/05/14 05:10:10;;;;;;;12.52;9.73;;;;;;;10.05;100.00;101905.63;4959529;28;20558;-46
2023/05/14 05:12:37;;;;;;;9.23;8.32;;;;;;;10.25;100.00;101907.91;4965536;28;20217;-48
2023/05/14 05:15:04;;;;;;;9.48;8.52;;;;;;;10.44;100.00;101907.59;4966211;28;20186;-48
2023/05/14 05:17:30;;;;;;;9.10;8.30;;;;;;;10.64;100.00;101900.03;4955984;28;20171;-49
2023/05/14 05:19:55;;;;;;;9.93;8.93;;;;;;;10.81;100.00;101907.72;4956197;28;20536;-48
2023/05/14 05:22:22;;;;;;;9.32;8.32;;;;;;;10.96;100.00;101917.22;4955063;28;20203;-47
2023/05/14 05:24:48;;;;;;;9.13;8.18;;;;;;;11.11;100.00;101913.31;4950557;28;20276;-48
2023/05/14 05:27:15;;;;;;;8.80;7.90;;;;;;;11.15;100.00;101906.97;4967449;28;20196;-48
2023/05/14 05:29:50;;;;;;;12.73;8.95;;;;;;;11.06;100.00;101907.16;4952859;28;20186;-45
2023/05/14 05:32:47;;;;;;;11.38;10.13;;;;;;;11.17;100.00;101912.28;4966899;28;20688;-47
2023/05/14 05:35:36;;;;;;;10.50;8.57;;;;;;;11.28;100.00;101905.75;4957149;28;20174;-48
2023/05/14 05:38:01;;;;;;;9.65;8.07;;;;;;;11.44;100.00;101908.94;4953163;28;20241;-47
2023/05/14 05:40:27;;;;;;;10.23;7.72;;;;;;;11.47;100.00;101903.47;4965544;28;20186;-47
2023/05/14 05:42:53;;;;;;;9.00;7.20;;;;;;;11.47;100.00;101899.91;4964418;28;20214;-49
2023/05/14 05:45:18;;;;;;;10.38;8.30;;;;;;;11.46;100.00;101903.53;4969464;28;20572;-48
2023/05/14 05:47:44;;;;;;;9.02;7.95;;;;;;;11.48;100.00;101896.34;4962534;28;20297;-48
2023/05/14 05:50:10;;;;;;;8.73;7.88;;;;;;;11.53;100.00;101906.03;4975805;28;20189;-47
2023/05/14 05:52:36;;;;;;;9.10;7.43;;;;;;;11.71;100.00;101901.09;4945239;28;20202;-48
2023/05/14 05:55:02;;;;;;;8.32;7.53;;;;;;;11.63;100.00;101898.63;4966914;28;20814;-55
2023/05/14 05:57:28;;;;;;;10.38;7.63;;;;;;;11.73;100.00;101901.94;4970776;28;20186;-53
2023/05/14 05:59:54;;;;;;;8.43;7.70;;;;;;;11.64;100.00;101903.06;4962326;28;20175;-53
2023/05/14 06:02:19;;;;;;;9.00;7.57;;;;;;;11.65;100.00;101898.56;4952738;28;20256;-54
2023/05/14 06:04:45;;;;;;;9.32;8.43;;;;;;;11.65;100.00;101909.31;4952785;28;20198;-52
2023/05/14 06:07:55;;;;;;;8.80;7.57;;;;;;;12.20;100.00;101912.38;4951159;28;20281;-52
2023/05/14 06:13:39;;;;;;;8.75;7.95;;;;;;;11.94;100.00;101911.28;4967138;28;20572;-53
2023/05/14 06:16:05;;;;;;;10.60;8.45;;;;;;;11.83;100.00;101911.53;4965048;28;20198;-51
2023/05/14 06:18:31;;;;;;;9.85;8.85;;;;;;;11.75;100.00;101906.34;4957938;28;20657;-53
2023/05/14 06:20:58;;;;;;;10.57;9.27;;;;;;;11.75;100.00;101908.16;4961782;28;20189;-53
2023/05/14 06:23:25;;;;;;;10.15;9.15;;;;;;;11.93;100.00;101907.69;4959398;28;20199;-53
2023/05/14 06:25:51;;;;;;;16.27;9.32;;;;;;;12.18;100.00;101916.91;4947199;28;20237;-53
2023/05/14 06:28:16;;;;;;;9.70;8.77;;;;;;;12.39;100.00;101921.69;4962158;28;20233;-54
2023/05/14 06:30:42;;;;;;;12.55;9.20;;;;;;;12.60;100.00;101911.25;4952302;28;20186;-52
2023/05/14 06:33:08;;;;;;;9.13;8.23;;;;;;;12.73;100.00;101912.66;4958496;28;20222;-52
2023/05/14 06:35:34;;;;;;;11.75;7.97;;;;;;;12.69;100.00;101921.72;4948280;28;20209;-52
2023/05/14 06:38:00;;;;;;;10.18;9.05;;;;;;;12.68;100.00;101920.88;4970739;28;20196;-51
2023/05/14 06:40:25;;;;;;;9.77;8.82;;;;;;;12.79;100.00;101907.09;4952492;29;20191;-48
2023/05/14 06:43:18;;;;;;;10.20;8.60;;;;;;;13.22;100.00;101903.03;4972615;28;20206;-48
2023/05/14 06:45:54;;;;;;;8.75;7.38;;;;;;;13.60;100.00;101906.34;4968539;28;20642;-46
2023/05/14 06:48:28;;;;;;;10.68;7.18;;;;;;;13.96;100.00;101906.00;4952596;28;20189;-45
2023/05/14 06:50:57;;;;;;;8.23;7.47;;;;;;;14.32;97.60;101892.13;4974115;28;20341;-47
2023/05/14 06:53:22;;;;;;;8.80;7.15;;;;;;;14.55;95.13;101886.78;4973970;28;20266;-50
2023/05/14 06:55:49;;;;;;;10.48;7.45;;;;;;;14.91;93.19;101889.03;4940816;28;20281;-50
2023/05/14 06:58:15;;;;;;;10.60;6.68;;;;;;;15.63;91.05;101867.16;4973972;28;20154;-49
2023/05/14 07:00:41;;;;;;;6.88;6.00;;;;;;;16.21;89.28;101879.09;4938181;29;20266;-50
2023/05/14 07:03:07;;;;;;;6.30;5.18;;;;;;;16.33;84.02;101864.97;4942963;29;20397;-50
2023/05/14 07:05:32;;;;;;;4.45;3.80;;;;;;;16.44;80.86;101851.88;4967446;28;20189;-48
2023/05/14 07:07:58;;;;;;;8.05;6.35;;;;;;;16.01;80.95;101851.13;4974560;28;20170;-45
2023/05/14 07:10:24;;;;;;;9.95;6.38;;;;;;;15.72;82.05;101856.91;4951022;29;20183;-48
2023/05/14 07:12:50;;;;;;;9.80;6.85;;;;;;;15.77;82.39;101852.22;4937899;29;20201;-48
2023/05/14 07:15:16;;;;;;;7.03;6.32;;;;;;;15.90;82.09;101853.41;4968547;28;20186;-46
2023/05/14 07:17:42;;;;;;;9.43;6.50;;;;;;;15.70;81.71;101846.16;4954624;29;20238;-49
2023/05/14 07:20:09;;;;;;;8.18;6.90;;;;;;;15.82;81.18;101850.16;4955651;28;20186;-48
2023/05/14 07:22:35;;;;;;;9.15;5.90;;;;;;;16.60;81.29;101848.44;4973403;28;20206;-48
2023/05/14 07:25:01;;;;;;;7.75;5.55;;;;;;;17.00;79.19;101833.00;4973443;28;20173;-47
2023/05/14 07:27:27;;;;;;;6.47;5.53;;;;;;;16.85;77.22;101827.38;4973686;28;20257;-46
2023/05/14 07:29:52;;;;;;;8.00;5.07;;;;;;;16.65;76.85;101814.78;4954403;29;20206;-49
2023/05/14 07:32:18;;;;;;;7.70;5.70;;;;;;;16.77;76.22;101809.72;4953744;29;20170;-46
2023/05/14 07:34:43;;;;;;;7.03;5.68;;;;;;;16.82;75.75;101807.72;4961515;28;20627;-49
2023/05/14 07:37:09;;;;;;;10.07;5.68;;;;;;;17.18;76.33;101813.13;4953868;29;20247;-48
2023/05/14 07:39:35;;;;;;;8.48;5.63;;;;;;;17.14;75.50;101822.34;4938455;28;20182;-47
2023/05/14 07:42:00;;;;;;;7.40;5.65;;;;;;;17.38;74.69;101806.72;4962559;28;20212;-46
2023/05/14 07:44:26;;;;;;;8.13;5.78;;;;;;;17.29;73.70;101805.38;4963327;28;20241;-48
2023/05/14 07:46:51;;;;;;;7.10;5.68;;;;;;;17.20;73.34;101799.53;4959304;28;20330;-47
2023/05/14 07:49:17;;;;;;;5.95;5.45;;;;;;;17.93;74.54;101800.28;4957623;28;20237;-47
2023/05/14 07:51:43;;;;;;;5.63;5.13;;;;;;;18.30;73.41;101800.97;4971932;28;20178;-47
2023/05/14 07:54:08;;;;;;;7.43;5.03;;;;;;;18.40;72.43;101795.91;4960028;28;20678;-47
2023/05/14 07:56:34;;;;;;;6.32;5.00;;;;;;;17.99;70.70;101791.78;4960242;28;20205;-47
2023/05/14 07:58:59;;;;;;;5.72;4.32;;;;;;;18.43;71.59;101798.44;4961366;28;20688;-46
2023/05/14 08:01:25;;;;;;;6.03;5.03;;;;;;;18.26;69.79;101786.72;4962158;28;20206;-48
2023/05/14 08:03:50;;;;;;;7.88;4.50;;;;;;;18.32;69.57;101780.94;4958452;28;20212;-47
2023/05/14 08:06:16;;;;;;;7.20;4.22;;;;;;;19.19;68.38;101771.47;4956816;28;20333;-47
2023/05/14 08:08:42;;;;;;;6.10;5.00;;;;;;;17.73;68.25;101776.03;4959887;28;20186;-47
2023/05/14 08:11:07;;;;;;;5.82;4.15;;;;;;;18.28;68.90;101773.06;4960080;28;20183;-47
2023/05/14 08:13:33;;;;;;;5.38;4.45;;;;;;;18.62;67.22;101763.88;4962155;28;20241;-46
2023/05/14 08:15:59;;;;;;;3.58;3.28;;;;;;;19.57;64.99;101749.28;4950213;28;20211;-47
2023/05/14 08:18:24;;;;;;;4.28;2.80;;;;;;;19.95;60.09;101700.66;4957220;28;20179;-45
2023/05/14 08:20:50;;;;;;;6.72;3.75;;;;;;;19.67;58.25;101698.78;4958953;28;20308;-45
2023/05/14 08:23:16;;;;;;;4.53;3.70;;;;;;;19.38;63.99;101751.38;4960330;28;20616;-47
2023/05/14 08:25:41;;;;;;;3.40;2.80;;;;;;;19.34;60.93;101729.78;4962144;28;20204;-45
2023/05/14 08:28:07;;;;;;;4.65;3.78;;;;;;;18.99;64.53;101752.78;4961094;28;20178;-46
2023/05/14 08:30:33;;;;;;;3.10;2.80;;;;;;;19.58;60.64;101718.38;4964221;28;20192;-45
2023/05/14 08:32:58;;;;;;;4.30;3.15;;;;;;;19.65;58.67;101697.13;4960847;28;20221;-45
2023/05/14 08:35:24;;;;;;;5.10;3.03;;;;;;;19.98;56.45;101683.25;4941862;28;20774;-47
2023/05/14 08:37:51;;;;;;;3.90;3.03;;;;;;;20.22;53.44;101650.00;4957236;28;20731;-46
2023/05/14 08:40:16;;;;;;;6.20;3.00;;;;;;;20.48;52.02;101642.81;4960044;28;20228;-46
2023/05/14 08:42:43;;;;;;;3.50;2.72;;;;;;;20.67;50.68;101627.03;4961856;28;20206;-47
2023/05/14 08:45:33;;;;;;;3.33;2.40;;;;;;;20.86;50.13;101621.19;4958967;28;20190;-45
2023/05/14 08:48:04;;;;;;;5.22;2.72;;;;;;;20.83;49.18;101605.06;4960339;28;20252;-45
2023/05/14 08:50:30;;;;;;;4.97;2.60;;;;;;;21.29;49.74;101629.06;4957805;28;20177;-47
2023/05/14 08:52:56;;;;;;;3.60;2.85;;;;;;;21.26;48.29;101607.50;4949980;28;20446;-44
2023/05/14 08:55:22;;;;;;;4.90;2.50;;;;;;;21.43;48.12;101602.72;4951806;28;20188;-47
2023/05/14 08:57:47;;;;;;;4.07;2.78;;;;;;;21.31;48.29;101605.31;4962236;28;20236;-45
2023/05/14 09:00:13;;;;;;;5.13;2.53;;;;;;;21.73;48.22;101614.13;4947125;28;20182;-47
2023/05/14 09:02:40;;;;;;;3.22;2.78;;;;;;;21.81;46.11;101578.97;4946872;28;20205;-50
2023/05/14 09:05:08;;;;;;;4.72;2.55;;;;;;;21.93;46.77;101590.88;4950989;28;20480;-51
2023/05/14 09:07:33;;;;;;;3.85;2.75;;;;;;;22.10;44.86;101573.22;4961355;28;20273;-51
2023/05/14 09:10:00;;;;;;;5.40;2.92;;;;;;;21.80;44.20;101560.88;4958770;28;20217;-51
2023/05/14 09:12:43;;;;;;;5.20;3.13;;;;;;;21.78;44.39;101556.53;4959089;28;20702;-49
2023/05/14 09:15:42;;;;;;;5.65;3.20;;;;;;;21.81;43.93;101553.56;4952514;28;20677;-51
2023/05/14 09:18:24;;;;;;;2.92;2.63;;;;;;;21.64;44.52;101564.84;4961467;28;20657;-50
2023/05/14 09:21:00;;;;;;;6.70;2.90;;;;;;;20.94;46.86;101586.09;4951448;28;20222;-52
2023/05/14 09:27:20;;;;;;;5.47;3.55;;;;;;;20.33;51.93;101644.72;4888819;29;20228;-51
2023/05/14 09:29:46;;;;;;;4.93;3.97;;;;;;;19.95;55.13;101681.63;4908420;28;20197;-52
2023/05/14 09:32:12;;;;;;;5.38;4.20;;;;;;;20.79;57.72;101709.72;4955724;28;20193;-49
2023/05/14 09:34:39;;;;;;;4.00;3.58;;;;;;;21.54;56.76;101711.91;4956320;28;20190;-51
2023/05/14 09:37:07;;;;;;;4.80;3.38;;;;;;;21.24;54.44;101679.47;4949180;28;20225;-51
2023/05/14 09:39:35;;;;;;;3.20;3.00;;;;;;;21.33;49.71;101613.38;4958926;28;20190;-50
2023/05/14 09:42:01;;;;;;;8.25;5.65;;;;;;;19.95;55.50;101665.28;4960473;28;20201;-49
2023/05/14 09:44:27;;;;;;;9.52;5.38;;;;;;;19.05;58.89;101708.97;4959754;28;20210;-50
2023/05/14 09:46:53;;;;;;;8.80;6.97;;;;;;;18.66;64.61;101765.47;4959942;28;20186;-49
2023/05/14 09:49:19;;;;;;;7.82;6.97;;;;;;;19.00;65.38;101760.84;4940290;28;20182;-51
2023/05/14 09:51:44;;;;;;;7.93;6.80;;;;;;;19.01;65.82;101765.28;4954279;28;20504;-51
2023/05/14 09:54:10;;;;;;;8.93;7.28;;;;;;;18.88;67.57;101764.25;4955972;28;20281;-51
2023/05/14 09:56:36;;;;;;;8.75;5.45;;;;;;;19.86;66.89;101762.94;4962280;28;20174;-52
2023/05/14 09:59:03;;;;;;;8.77;7.97;;;;;;;18.58;66.20;101742.44;4960635;28;20209;-51
2023/05/14 10:01:29;;;;;;;8.85;8.05;;;;;;;17.24;69.88;101763.22;4963073;28;20492;-49
2023/05/14 10:03:55;;;;;;;8.00;7.00;;;;;;;18.31;71.82;101775.59;4961020;28;20298;-48
2023/05/14 10:06:26;;;;;;;10.07;6.60;;;;;;;18.34;70.97;101770.00;4964987;28;20187;-49
2023/05/14 10:08:56;;;;;;;10.38;6.93;;;;;;;18.34;70.82;101764.56;4961891;28;20174;-49
2023/05/14 10:11:26;;;;;;;10.82;8.15;;;;;;;17.84;71.12;101766.41;4960760;28;20197;-49
2023/05/14 10:14:01;;;;;;;8.80;8.00;;;;;;;17.26;73.51;101777.56;4963910;28;20255;-49
2023/05/14 10:16:33;;;;;;;7.55;6.65;;;;;;;18.27;73.71;101763.16;4965300;28;20309;-49
2023/05/14 10:19:05;;;;;;;6.47;5.88;;;;;;;19.08;72.21;101758.53;4962219;28;20580;-50
2023/05/14 10:21:34;;;;;;;8.93;7.85;;;;;;;16.95;73.99;101764.69;4962359;28;20171;-51
2023/05/14 10:24:00;;;;;;;9.00;7.32;;;;;;;16.67;76.77;101775.00;4959224;28;20210;-49
2023/05/14 10:26:27;;;;;;;11.73;7.50;;;;;;;17.04;77.99;101773.22;4961282;28;20201;-49
2023/05/14 10:28:53;;;;;;;10.60;6.38;;;;;;;17.25;78.96;101773.97;4962288;28;20182;-49
2023/05/14 10:31:22;;;;;;;8.43;5.28;;;;;;;18.21;77.50;101768.94;4954414;28;20195;-49
2023/05/14 10:33:49;;;;;;;5.22;4.40;;;;;;;19.06;69.42;101707.97;4947513;28;20273;-48
2023/05/14 10:36:16;;;;;;;6.60;6.00;;;;;;;17.77;72.75;101720.69;4959398;28;20175;-48
2023/05/14 10:38:42;;;;;;;5.35;4.68;;;;;;;18.29;73.29;101736.81;4957128;28;20209;-50
2023/05/14 10:41:16;;;;;;;7.10;3.63;;;;;;;19.60;69.89;101702.84;4965688;28;20190;-50
2023/05/14 10:43:42;;;;;;;7.15;3.40;;;;;;;20.52;63.10;101657.97;4961686;28;20210;-50
2023/05/14 10:46:11;;;;;;;4.90;3.35;;;;;;;20.57;58.78;101625.91;4963073;28;20244;-49
2023/05/14 10:48:39;;;;;;;6.75;3.20;;;;;;;20.14;58.39;101616.00;4960727;28;20630;-50
2023/05/14 10:51:07;;;;;;;5.57;3.63;;;;;;;20.36;57.43;101614.59;4938692;28;20186;-51
2023/05/14 10:53:37;;;;;;;5.10;3.72;;;;;;;20.64;56.59;101599.13;4940101;29;20207;-50
2023/05/14 10:56:05;;;;;;;4.32;3.08;;;;;;;21.15;55.83;101593.75;4940210;28;20552;-50
2023/05/14 10:58:34;;;;;;;5.50;3.38;;;;;;;21.31;56.86;101610.75;4939906;29;20182;-50
2023/05/14 11:01:00;;;;;;;5.65;3.15;;;;;;;21.35;54.04;101587.75;4945593;29;20233;-50
2023/05/14 11:03:30;;;;;;;7.95;3.33;;;;;;;20.90;52.42;101554.63;4940587;29;20207;-50
2023/05/14 11:05:56;;;;;;;4.60;3.40;;;;;;;20.48;53.18;101567.47;4938996;29;20198;-49
2023/05/14 11:08:24;;;;;;;3.30;3.00;;;;;;;20.98;52.79;101571.28;4943355;29;20209;-50
2023/05/14 11:10:51;;;;;;;4.45;3.00;;;;;;;21.44;53.42;101572.63;4937653;28;20253;-50
2023/05/14 11:13:18;;;;;;;4.43;3.40;;;;;;;20.94;52.74;101567.03;4940202;29;20305;-51
2023/05/14 11:15:47;;;;;;;3.78;3.38;;;;;;;21.38;52.88;101576.66;4950495;29;20186;-52
2023/05/14 11:18:12;;;;;;;5.40;3.33;;;;;;;21.76;52.69;101566.69;4944912;28;20194;-50
2023/05/14 11:20:38;;;;;;;4.20;2.90;;;;;;;21.85;51.88;101549.63;4946360;29;20333;-50
2023/05/14 11:23:03;;;;;;;4.63;3.00;;;;;;;21.76;50.39;101532.09;4940482;29;20221;-49
2023/05/14 11:25:29;;;;;;;6.60;3.72;;;;;;;21.34;50.83;101528.78;4951493;29;20291;-49
2023/05/14 11:27:57;;;;;;;4.13;2.90;;;;;;;20.83;51.34;101530.66;4942258;29;20594;-49
2023/05/14 11:30:23;;;;;;;7.18;2.92;;;;;;;20.97;51.75;101538.72;4941697;29;20669;-49
2023/05/14 11:32:49;;;;;;;4.63;3.30;;;;;;;20.97;52.18;101547.75;4942232;29;20210;-51
2023/05/14 11:35:16;;;;;;;7.00;3.10;;;;;;;20.57;52.49;101544.22;4942863;29;20208;-49
2023/05/14 11:37:42;;;;;;;5.50;3.15;;;;;;;20.87;54.57;101564.88;4943239;29;20182;-51
2023/05/14 11:40:15;;;;;;;6.15;3.40;;;;;;;20.71;54.28;101567.78;4940578;28;20605;-49